createdAt,value
2017-10-13T00:00:57.465Z,75.90
2017-10-13T00:03:28.496Z,75.30
2017-10-13T00:05:56.677Z,75.30
2017-10-13T00:08:24.841Z,74.40
2017-10-13T00:10:54.632Z,74.60
2017-10-13T00:13:23.160Z,74.70
2017-10-13T00:15:54.945Z,74.80
2017-10-13T00:18:23.829Z,73.90
2017-10-13T00:20:53.045Z,74.00
2017-10-13T00:23:22.511Z,74.00
2017-10-13T00:25:50.646Z,73.80
2017-10-13T00:28:20.458Z,73.50
2017-10-13T00:30:48.660Z,73.70
2017-10-13T00:33:21.844Z,73.50
2017-10-13T00:35:49.994Z,73.80
2017-10-13T00:38:19.937Z,74.10
2017-10-13T00:40:48.078Z,74.50
2017-10-13T00:43:17.296Z,73.80
2017-10-13T00:45:45.443Z,73.80
2017-10-13T00:48:18.979Z,73.30
2017-10-13T00:50:47.139Z,73.30
2017-10-13T00:53:16.209Z,73.70
2017-10-13T00:55:44.377Z,73.50
2017-10-13T00:58:15.940Z,73.20
2017-10-13T01:00:44.099Z,73.10
2017-10-13T01:03:12.249Z,73.50
2017-10-13T01:05:41.731Z,73.80
2017-10-13T01:08:11.478Z,73.10
2017-10-13T01:10:41.725Z,73.50
2017-10-13T01:13:09.878Z,73.50
2017-10-13T01:15:40.982Z,73.50
2017-10-13T01:18:10.508Z,73.40
2017-10-13T01:20:38.637Z,73.40
2017-10-13T01:23:08.508Z,72.70
2017-10-13T01:25:38.989Z,73.20
2017-10-13T01:28:07.665Z,73.20
2017-10-13T01:30:35.774Z,73.10
2017-10-13T01:33:03.933Z,73.00
2017-10-13T01:35:34.395Z,72.80
2017-10-13T01:38:03.695Z,73.40
2017-10-13T01:40:32.577Z,73.60
2017-10-13T01:43:00.702Z,73.60
2017-10-13T01:45:28.826Z,73.60
2017-10-13T01:47:56.993Z,73.60
2017-10-13T01:50:25.105Z,73.60
2017-10-13T01:52:53.241Z,73.30
2017-10-13T01:55:21.795Z,73.40
2017-10-13T01:57:49.924Z,72.70
2017-10-13T02:00:18.052Z,72.50
2017-10-13T02:02:46.218Z,73.20
2017-10-13T02:05:14.884Z,73.10
2017-10-13T02:07:45.458Z,73.20
2017-10-13T02:10:14.339Z,73.10
2017-10-13T02:12:42.940Z,73.10
2017-10-13T02:15:11.068Z,72.60
2017-10-13T02:17:39.186Z,73.10
2017-10-13T02:20:08.098Z,73.00
2017-10-13T02:22:37.409Z,72.80
2017-10-13T02:25:06.918Z,73.00
2017-10-13T02:27:36.930Z,72.60
2017-10-13T02:30:06.411Z,73.20
2017-10-13T02:32:36.406Z,72.50
2017-10-13T02:35:06.056Z,72.50
2017-10-13T02:37:35.221Z,72.50
2017-10-13T02:40:05.530Z,72.80
2017-10-13T02:42:35.730Z,72.70
2017-10-13T02:45:07.059Z,72.60
2017-10-13T02:47:37.349Z,72.60
2017-10-13T02:50:06.256Z,73.30
2017-10-13T02:52:35.233Z,73.20
2017-10-13T02:55:03.367Z,73.90
2017-10-13T02:57:33.513Z,73.60
2017-10-13T03:00:03.822Z,74.20
2017-10-13T03:02:33.253Z,74.20
2017-10-13T03:05:04.140Z,73.80
2017-10-13T03:07:32.253Z,73.80
2017-10-13T03:10:00.397Z,74.00
2017-10-13T03:12:30.450Z,73.40
2017-10-13T03:14:59.824Z,75.00
2017-10-13T03:17:28.439Z,74.30
2017-10-13T03:19:58.668Z,74.10
2017-10-13T03:22:28.375Z,73.70
2017-10-13T03:24:57.669Z,73.70
2017-10-13T03:27:27.169Z,73.60
2017-10-13T03:29:55.291Z,73.70
2017-10-13T03:32:25.891Z,74.10
2017-10-13T03:34:55.815Z,74.90
2017-10-13T03:37:24.685Z,75.00
2017-10-13T03:39:54.351Z,75.00
2017-10-13T03:42:24.216Z,74.50
2017-10-13T03:44:53.240Z,74.50
2017-10-13T03:47:21.360Z,74.40
2017-10-13T03:49:50.577Z,74.40
2017-10-13T03:52:20.946Z,74.50
2017-10-13T03:54:49.157Z,74.40
2017-10-13T03:57:19.613Z,74.70
2017-10-13T03:59:52.408Z,75.30
2017-10-13T04:02:21.379Z,75.20
2017-10-13T04:04:49.500Z,75.60
2017-10-13T04:07:17.649Z,75.70
2017-10-13T04:09:46.518Z,75.80
2017-10-13T04:12:17.142Z,76.00
2017-10-13T04:14:45.760Z,75.90
2017-10-13T04:17:14.825Z,76.30
2017-10-13T04:19:43.713Z,76.10
2017-10-13T04:22:12.619Z,76.10
2017-10-13T04:24:44.592Z,76.30
2017-10-13T04:27:13.937Z,76.30
2017-10-13T04:29:42.066Z,76.00
2017-10-13T04:32:10.949Z,75.90
2017-10-13T04:34:39.085Z,75.70
2017-10-13T04:37:10.300Z,75.60
2017-10-13T04:39:38.443Z,75.50
2017-10-13T04:42:06.601Z,76.40
2017-10-13T04:44:37.143Z,75.20
2017-10-13T04:47:06.046Z,74.90
2017-10-13T04:49:35.819Z,74.90
2017-10-13T04:52:03.981Z,75.20
2017-10-13T04:54:32.621Z,75.40
2017-10-13T04:57:01.203Z,75.60
2017-10-13T04:59:30.019Z,76.70
2017-10-13T05:01:59.170Z,76.60
2017-10-13T05:04:27.770Z,76.80
2017-10-13T05:06:55.946Z,77.00
2017-10-13T05:09:24.080Z,77.40
2017-10-13T05:11:52.232Z,77.40
2017-10-13T05:14:22.037Z,77.80
2017-10-13T05:16:50.207Z,77.50
2017-10-13T05:19:19.558Z,77.60
2017-10-13T05:21:52.332Z,77.60
2017-10-13T05:24:21.302Z,77.60
2017-10-13T05:26:49.469Z,77.80
2017-10-13T05:29:17.595Z,77.10
2017-10-13T05:31:45.737Z,76.60
2017-10-13T05:34:14.321Z,76.50
2017-10-13T05:36:45.871Z,76.60
2017-10-13T05:39:14.004Z,76.90
2017-10-13T05:41:42.147Z,76.90
2017-10-13T05:44:11.172Z,76.90
2017-10-13T05:46:39.333Z,77.50
2017-10-13T05:49:07.453Z,77.40
2017-10-13T05:51:37.087Z,77.10
2017-10-13T05:54:05.282Z,77.90
2017-10-13T05:56:33.400Z,78.00
2017-10-13T05:59:04.274Z,78.20
2017-10-13T06:01:33.289Z,79.30
2017-10-13T06:04:02.731Z,78.60
2017-10-13T06:06:30.836Z,78.40
2017-10-13T06:09:01.515Z,78.70
2017-10-13T06:11:29.659Z,78.00
2017-10-13T06:13:57.815Z,77.90
2017-10-13T06:16:26.419Z,77.70
2017-10-13T06:18:54.562Z,77.80
2017-10-13T06:21:22.683Z,77.70
2017-10-13T06:23:50.812Z,77.40
2017-10-13T06:26:19.900Z,77.70
2017-10-13T06:28:48.032Z,78.50
2017-10-13T06:31:16.145Z,78.00
2017-10-13T06:33:44.288Z,77.80
2017-10-13T06:36:12.997Z,77.70
2017-10-13T06:38:41.952Z,77.40
2017-10-13T06:41:10.067Z,77.40
2017-10-13T06:43:40.637Z,77.30
2017-10-13T06:46:08.754Z,77.40
2017-10-13T06:48:36.994Z,77.10
2017-10-13T06:51:05.153Z,76.80
2017-10-13T06:53:34.072Z,75.70
2017-10-13T06:56:02.211Z,75.60
2017-10-13T06:58:31.418Z,75.90
2017-10-13T07:01:00.307Z,75.90
2017-10-13T07:03:29.198Z,76.00
2017-10-13T07:05:58.075Z,76.80
2017-10-13T07:08:27.489Z,77.30
2017-10-13T07:10:56.374Z,76.70
2017-10-13T07:13:26.781Z,76.70
2017-10-13T07:15:54.901Z,76.30
2017-10-13T07:18:26.128Z,75.10
2017-10-13T07:20:55.015Z,75.60
2017-10-13T07:23:24.347Z,75.80
2017-10-13T07:25:52.451Z,75.70
2017-10-13T07:28:20.583Z,75.60
2017-10-13T07:30:49.711Z,75.30
2017-10-13T07:33:17.841Z,75.60
2017-10-13T07:35:46.732Z,74.20
2017-10-13T07:38:16.251Z,74.20
2017-10-13T07:40:45.234Z,70.90
2017-10-13T07:43:14.128Z,68.30
2017-10-13T07:45:42.255Z,68.40
2017-10-13T07:48:10.387Z,67.90
2017-10-13T07:50:38.538Z,66.90
2017-10-13T07:53:07.919Z,62.90
2017-10-13T07:55:36.065Z,62.80
2017-10-13T07:58:05.120Z,62.20
2017-10-13T08:00:34.749Z,62.40
2017-10-13T08:03:02.854Z,63.90
2017-10-13T08:05:31.409Z,64.80
2017-10-13T08:07:59.540Z,66.60
2017-10-13T08:10:28.432Z,67.40
2017-10-13T08:12:57.331Z,67.40
2017-10-13T08:15:26.406Z,68.00
2017-10-13T08:17:55.307Z,69.00
2017-10-13T08:20:23.447Z,69.00
2017-10-13T08:22:51.552Z,67.80
2017-10-13T08:25:20.437Z,67.30
2017-10-13T08:27:48.584Z,67.10
2017-10-13T08:30:16.765Z,67.20
2017-10-13T08:32:45.685Z,67.00
2017-10-13T08:35:14.572Z,67.10
2017-10-13T08:37:43.508Z,67.40
2017-10-13T08:40:11.682Z,67.30
2017-10-13T08:42:39.825Z,67.40
2017-10-13T08:45:08.698Z,67.30
2017-10-13T08:47:37.615Z,67.80
2017-10-13T08:50:05.731Z,67.80
2017-10-13T08:52:33.868Z,68.90
2017-10-13T08:55:01.988Z,68.40
2017-10-13T08:57:30.141Z,69.30
2017-10-13T08:59:58.259Z,68.80
2017-10-13T09:02:27.494Z,69.80
2017-10-13T09:04:56.763Z,69.50
2017-10-13T09:07:25.013Z,68.80
2017-10-13T09:09:53.121Z,69.80
2017-10-13T09:12:22.024Z,71.00
2017-10-13T09:14:50.145Z,71.00
2017-10-13T09:17:19.332Z,70.50
2017-10-13T09:19:47.446Z,71.60
2017-10-13T09:22:16.368Z,70.70
2017-10-13T09:24:44.511Z,70.80
2017-10-13T09:27:12.644Z,70.00
2017-10-13T09:29:40.766Z,70.30
2017-10-13T09:32:09.646Z,71.40
2017-10-13T09:34:37.890Z,71.40
2017-10-13T09:37:05.999Z,71.30
2017-10-13T09:39:35.778Z,72.80
2017-10-13T09:42:03.969Z,72.70
2017-10-13T09:44:32.100Z,70.90
2017-10-13T09:47:00.499Z,68.80
2017-10-13T09:49:28.642Z,68.10
2017-10-13T09:51:56.739Z,67.70
2017-10-13T09:54:24.880Z,66.20
2017-10-13T09:56:53.001Z,66.80
2017-10-13T09:59:22.144Z,66.80
2017-10-13T10:01:56.531Z,66.60
2017-10-13T10:04:24.657Z,66.00
2017-10-13T10:06:52.779Z,67.20
2017-10-13T10:09:21.349Z,66.40
2017-10-13T10:11:49.458Z,67.60
2017-10-13T10:14:18.355Z,68.50
2017-10-13T10:16:47.233Z,68.00
2017-10-13T10:19:22.361Z,68.00
2017-10-13T10:21:52.112Z,69.60
2017-10-13T10:24:20.249Z,69.00
2017-10-13T10:26:48.359Z,69.80
2017-10-13T10:29:16.667Z,70.10
2017-10-13T10:31:45.604Z,70.00
2017-10-13T10:34:14.529Z,70.40
2017-10-13T10:36:42.652Z,70.40
2017-10-13T10:39:10.771Z,70.00
2017-10-13T10:41:38.916Z,70.20
2017-10-13T10:44:07.807Z,69.80
2017-10-13T10:46:36.710Z,70.40
2017-10-13T10:49:04.825Z,70.30
2017-10-13T10:51:33.841Z,70.40
2017-10-13T10:54:02.013Z,70.80
2017-10-13T10:56:30.955Z,70.20
2017-10-13T10:59:00.347Z,70.10
2017-10-13T11:01:29.448Z,70.10
2017-10-13T11:03:57.632Z,70.00
2017-10-13T11:06:25.767Z,69.80
2017-10-13T11:08:53.887Z,69.00
2017-10-13T11:11:22.020Z,70.40
2017-10-13T11:13:50.887Z,70.70
2017-10-13T11:16:19.048Z,70.70
2017-10-13T11:18:47.164Z,70.30
2017-10-13T11:21:16.069Z,71.20
2017-10-13T11:23:44.177Z,71.20
2017-10-13T11:26:12.318Z,71.70
2017-10-13T11:28:40.434Z,71.70
2017-10-13T11:31:09.327Z,72.60
2017-10-13T11:33:37.451Z,72.60
2017-10-13T11:36:05.583Z,73.20
2017-10-13T11:38:33.701Z,71.90
2017-10-13T11:41:01.839Z,72.30
2017-10-13T11:43:29.968Z,72.00
2017-10-13T11:45:58.114Z,72.20
2017-10-13T11:48:26.225Z,71.50
2017-10-13T11:50:54.355Z,70.80
2017-10-13T11:53:22.467Z,71.10
2017-10-13T11:55:50.605Z,71.70
2017-10-13T11:58:18.724Z,70.20
2017-10-13T12:00:46.866Z,70.60
2017-10-13T12:03:14.968Z,69.60
2017-10-13T12:05:43.130Z,69.70
2017-10-13T12:08:11.231Z,70.60
2017-10-13T12:10:39.382Z,69.30
2017-10-13T12:13:07.502Z,69.10
2017-10-13T12:15:37.981Z,68.80
2017-10-13T12:18:06.128Z,68.80
2017-10-13T12:20:34.249Z,67.90
2017-10-13T12:23:02.385Z,67.40
2017-10-13T12:25:30.491Z,67.50
2017-10-13T12:27:58.621Z,67.80
2017-10-13T12:30:26.732Z,67.60
2017-10-13T12:32:54.870Z,68.20
2017-10-13T12:35:22.980Z,67.30
2017-10-13T12:37:51.116Z,67.30
2017-10-13T12:40:19.235Z,68.00
2017-10-13T12:42:48.140Z,68.00
2017-10-13T12:45:16.273Z,67.70
2017-10-13T12:47:44.426Z,67.70
2017-10-13T12:50:13.314Z,68.30
2017-10-13T12:52:42.211Z,68.40
2017-10-13T12:55:10.327Z,68.40
2017-10-13T12:57:38.466Z,68.00
2017-10-13T13:00:06.572Z,67.70
2017-10-13T13:02:34.729Z,68.20
2017-10-13T13:05:05.216Z,68.60
2017-10-13T13:07:33.362Z,68.30
2017-10-13T13:10:01.474Z,68.20
2017-10-13T13:12:29.610Z,68.40
2017-10-13T13:14:57.757Z,69.00
2017-10-13T13:17:25.926Z,68.50
2017-10-13T13:19:54.043Z,68.00
2017-10-13T13:22:22.206Z,68.20
2017-10-13T13:24:50.350Z,68.30
2017-10-13T13:27:18.489Z,67.60
2017-10-13T13:29:46.706Z,67.80
2017-10-13T13:32:14.815Z,68.00
2017-10-13T13:34:43.938Z,67.80
2017-10-13T13:37:12.868Z,68.40
2017-10-13T13:39:42.024Z,68.40
2017-10-13T13:42:10.937Z,68.30
2017-10-13T13:44:39.088Z,68.20
2017-10-13T13:47:07.967Z,68.70
2017-10-13T13:49:36.117Z,68.70
2017-10-13T13:52:04.233Z,69.00
2017-10-13T13:54:33.131Z,68.80
2017-10-13T13:57:01.269Z,68.80
2017-10-13T13:59:29.433Z,69.00
2017-10-13T14:04:18.852Z,68.20
2017-10-13T14:06:47.747Z,69.20
2017-10-13T14:09:16.676Z,68.90
2017-10-13T14:11:44.806Z,68.80
2017-10-13T14:14:13.056Z,69.30
2017-10-13T14:16:41.212Z,70.00
2017-10-13T14:19:09.353Z,69.60
2017-10-13T14:21:37.478Z,69.50
2017-10-13T14:24:05.632Z,70.00
2017-10-13T14:26:33.913Z,70.10
2017-10-13T14:29:02.080Z,70.00
2017-10-13T14:31:30.214Z,70.30
2017-10-13T14:33:58.798Z,70.20
2017-10-13T14:36:27.674Z,70.20
2017-10-13T14:38:56.579Z,70.70
2017-10-13T14:41:24.703Z,70.70
2017-10-13T14:43:52.843Z,71.10
2017-10-13T14:46:20.947Z,71.20
2017-10-13T14:48:49.101Z,70.40
2017-10-13T14:51:17.254Z,70.20
2017-10-13T14:53:45.392Z,70.90
2017-10-13T14:56:13.519Z,71.20
2017-10-13T14:58:41.655Z,70.80
2017-10-13T15:01:10.578Z,70.90
2017-10-13T15:03:38.693Z,70.90
2017-10-13T15:06:06.875Z,71.20
2017-10-13T15:08:34.999Z,71.50
2017-10-13T15:11:03.172Z,71.90
2017-10-13T15:13:31.670Z,71.90
2017-10-13T15:15:59.802Z,72.80
2017-10-13T15:18:28.693Z,74.50
2017-10-13T15:20:57.595Z,75.10
2017-10-13T15:23:25.716Z,75.10
2017-10-13T15:25:54.812Z,74.40
2017-10-13T15:28:28.821Z,74.60
2017-10-13T15:31:01.830Z,73.90
2017-10-13T15:33:35.677Z,74.30
2017-10-13T15:36:09.559Z,74.90
2017-10-13T15:38:44.048Z,74.50
2017-10-13T15:41:17.794Z,74.50
2017-10-13T15:43:52.372Z,74.70
2017-10-13T15:46:26.096Z,74.70
2017-10-13T15:48:59.976Z,74.50
2017-10-13T15:51:33.779Z,75.20
2017-10-13T15:54:01.894Z,75.70
2017-10-13T15:56:30.809Z,77.00
2017-10-13T15:58:58.928Z,76.90
2017-10-13T16:01:27.059Z,77.10
2017-10-13T16:03:55.188Z,77.30
2017-10-13T16:06:23.364Z,77.50
2017-10-13T16:08:51.480Z,77.60
2017-10-13T16:11:19.617Z,78.50
2017-10-13T16:13:48.566Z,78.80
2017-10-13T16:16:16.698Z,78.70
2017-10-13T16:18:45.618Z,79.30
2017-10-13T16:21:13.748Z,79.30
2017-10-13T16:23:41.997Z,79.90
2017-10-13T16:26:10.182Z,80.60
2017-10-13T16:28:38.339Z,80.60
2017-10-13T16:31:06.485Z,80.80
2017-10-13T16:33:34.625Z,80.90
2017-10-13T16:36:03.505Z,80.80
2017-10-13T16:38:31.637Z,80.80
2017-10-13T16:40:59.773Z,81.20
2017-10-13T16:43:28.699Z,81.70
2017-10-13T16:45:56.805Z,81.50
2017-10-13T16:48:24.959Z,81.80
2017-10-13T16:50:53.083Z,81.60
2017-10-13T16:53:22.014Z,81.80
2017-10-13T16:55:50.158Z,81.80
2017-10-13T16:58:18.755Z,81.90
2017-10-13T17:00:46.883Z,81.80
2017-10-13T17:03:15.503Z,81.90
2017-10-13T17:05:45.720Z,81.50
2017-10-13T17:08:13.888Z,81.50
2017-10-13T17:10:43.793Z,81.70
2017-10-13T17:13:15.633Z,81.90
2017-10-13T17:15:44.162Z,81.90
2017-10-13T17:18:13.530Z,82.60
2017-10-13T17:20:44.583Z,82.60
2017-10-13T17:23:14.914Z,82.30
2017-10-13T17:25:43.057Z,82.20
2017-10-13T17:28:11.172Z,82.20
2017-10-13T17:30:40.106Z,81.90
2017-10-13T17:33:09.128Z,82.00
2017-10-13T17:35:37.277Z,82.70
2017-10-13T17:38:06.860Z,81.80
2017-10-13T17:40:35.007Z,82.40
2017-10-13T17:43:04.353Z,82.50
2017-10-13T17:45:32.501Z,82.20
2017-10-13T17:48:00.635Z,82.20
2017-10-13T17:50:29.555Z,81.90
2017-10-13T17:52:58.219Z,81.80
2017-10-13T17:55:27.846Z,81.50
2017-10-13T17:57:55.958Z,81.50
2017-10-13T18:00:24.125Z,81.30
2017-10-13T18:02:52.267Z,81.80
2017-10-13T18:05:20.415Z,81.90
2017-10-13T18:07:49.318Z,81.60
2017-10-13T18:10:18.198Z,81.20
2017-10-13T18:12:47.585Z,81.40
2017-10-13T18:15:16.483Z,83.10
2017-10-13T18:17:45.391Z,82.40
2017-10-13T18:20:15.168Z,81.40
2017-10-13T18:22:44.606Z,81.40
2017-10-13T18:25:13.514Z,82.80
2017-10-13T18:27:41.661Z,82.80
2017-10-13T18:30:09.784Z,82.80
2017-10-13T18:32:37.933Z,82.50
2017-10-13T18:35:07.791Z,82.90
2017-10-13T18:37:35.947Z,82.60
2017-10-13T18:40:04.862Z,82.60
2017-10-13T18:42:33.014Z,83.10
2017-10-13T18:45:01.144Z,83.20
2017-10-13T18:47:30.048Z,83.50
2017-10-13T18:49:58.191Z,83.50
2017-10-13T18:52:26.350Z,83.00
2017-10-13T18:54:54.474Z,82.90
2017-10-13T18:57:22.618Z,82.30
2017-10-13T18:59:50.736Z,82.20
2017-10-13T19:02:19.970Z,82.20
2017-10-13T19:04:48.120Z,82.30
2017-10-13T19:07:16.265Z,81.70
2017-10-13T19:09:45.336Z,81.50
2017-10-13T19:12:14.150Z,81.40
2017-10-13T19:14:42.811Z,81.40
2017-10-13T19:17:11.734Z,82.10
2017-10-13T19:19:39.855Z,82.10
2017-10-13T19:22:07.996Z,82.60
2017-10-13T19:24:36.130Z,82.00
2017-10-13T19:27:05.039Z,82.00
2017-10-13T19:29:33.201Z,81.90
2017-10-13T19:32:01.775Z,81.00
2017-10-13T19:34:30.653Z,80.60
2017-10-13T19:36:58.794Z,80.60
2017-10-13T19:39:26.908Z,81.40
2017-10-13T19:41:55.814Z,82.50
2017-10-13T19:44:24.713Z,82.40
2017-10-13T19:46:52.853Z,82.40
2017-10-13T19:49:20.979Z,82.50
2017-10-13T19:51:49.143Z,82.60
2017-10-13T19:54:17.285Z,82.50
2017-10-13T19:56:46.197Z,83.60
2017-10-13T19:59:14.329Z,83.60
2017-10-13T20:01:42.497Z,83.00
2017-10-13T20:04:11.839Z,83.30
2017-10-13T20:06:42.104Z,83.30
2017-10-13T20:09:10.234Z,83.20
2017-10-13T20:11:40.497Z,83.60
2017-10-13T20:14:08.645Z,83.60
2017-10-13T20:16:36.815Z,83.60
2017-10-13T20:19:04.949Z,82.40
2017-10-13T20:21:33.491Z,82.20
2017-10-13T20:24:02.755Z,82.20
2017-10-13T20:26:32.998Z,82.10
2017-10-13T20:29:01.134Z,82.20
2017-10-13T20:31:29.626Z,82.30
2017-10-13T20:33:58.540Z,82.90
2017-10-13T20:36:26.655Z,82.90
2017-10-13T20:38:54.802Z,83.20
2017-10-13T20:41:22.936Z,83.50
2017-10-13T20:43:52.164Z,83.60
2017-10-13T20:46:20.280Z,83.60
2017-10-13T20:48:48.429Z,83.30
2017-10-13T20:51:17.563Z,83.40
2017-10-13T20:53:45.721Z,83.40
2017-10-13T20:56:15.392Z,83.30
2017-10-13T20:58:45.058Z,84.80
2017-10-13T21:01:13.204Z,84.80
2017-10-13T21:03:41.405Z,84.90
2017-10-13T21:06:10.350Z,85.30
2017-10-13T21:08:38.524Z,85.30
2017-10-13T21:11:06.641Z,85.50
2017-10-13T21:13:34.796Z,85.10
2017-10-13T21:16:04.262Z,85.00
2017-10-13T21:18:32.387Z,84.60
2017-10-13T21:21:01.054Z,84.40
2017-10-13T21:23:31.474Z,84.20
2017-10-13T21:26:01.401Z,84.20
2017-10-13T21:28:29.544Z,84.20
2017-10-13T21:30:57.692Z,82.40
2017-10-13T21:33:26.598Z,82.70
2017-10-13T21:35:54.750Z,82.70
2017-10-13T21:38:24.740Z,83.30
2017-10-13T21:40:52.875Z,83.30
2017-10-13T21:43:21.753Z,83.00
2017-10-13T21:45:49.896Z,82.20
2017-10-13T21:48:18.822Z,82.40
2017-10-13T21:50:47.295Z,82.30
2017-10-13T21:53:15.465Z,82.60
2017-10-13T21:55:43.603Z,83.90
2017-10-13T21:58:11.779Z,82.80
2017-10-13T22:00:39.934Z,82.50
2017-10-13T22:03:08.066Z,81.90
2017-10-13T22:05:36.211Z,82.90
2017-10-13T22:08:05.107Z,83.50
2017-10-13T22:10:34.115Z,83.40
2017-10-13T22:13:03.480Z,83.40
2017-10-13T22:15:32.031Z,84.10
2017-10-13T22:18:00.639Z,83.80
2017-10-13T22:20:34.749Z,83.60
2017-10-13T22:23:02.874Z,83.60
2017-10-13T22:25:31.028Z,83.20
2017-10-13T22:27:59.930Z,82.00
2017-10-13T22:30:28.812Z,82.00
2017-10-13T22:32:57.748Z,82.10
2017-10-13T22:35:25.881Z,82.10
2017-10-13T22:37:54.792Z,82.00
2017-10-13T22:40:22.919Z,82.00
2017-10-13T22:42:51.053Z,83.00
2017-10-13T22:45:19.175Z,83.80
2017-10-13T22:47:47.327Z,83.60
2017-10-13T22:50:15.452Z,83.60
2017-10-13T22:52:44.354Z,83.70
2017-10-13T22:55:12.463Z,83.70
2017-10-13T22:57:40.655Z,83.90
2017-10-13T23:00:08.775Z,84.10
2017-10-13T23:02:36.919Z,84.30
2017-10-13T23:05:05.795Z,84.50
2017-10-13T23:07:33.924Z,84.50
2017-10-13T23:10:02.068Z,83.90
2017-10-13T23:12:30.979Z,84.40
2017-10-13T23:14:59.118Z,84.40
2017-10-13T23:17:27.294Z,84.40
2017-10-13T23:19:56.788Z,83.90
2017-10-13T23:22:27.001Z,83.90
2017-10-13T23:24:55.121Z,83.50
2017-10-13T23:27:23.268Z,83.60
2017-10-13T23:29:52.156Z,85.00
2017-10-13T23:32:21.081Z,84.10
2017-10-13T23:34:49.214Z,84.10
2017-10-13T23:37:17.358Z,83.80
2017-10-13T23:39:45.493Z,83.80
2017-10-13T23:42:13.638Z,84.20
2017-10-13T23:44:42.746Z,85.20
2017-10-13T23:47:11.679Z,84.70
2017-10-13T23:49:40.093Z,84.70
2017-10-13T23:52:08.233Z,84.50
2017-10-13T23:54:36.347Z,84.60
2017-10-13T23:57:07.008Z,84.00
2017-10-13T23:59:35.130Z,84.10
